Board Camp, AR

3:24 AM CDT en Julio 24, 2014 (GMT -0500)
Mena (KMEZ) Alt 1079 ft | 34.55 °N, 94.20 °W | Change Station

Current weather conditions updated 9 minutes ago

Clear
Despejado
68 ° F
Sensación térmica 68 ° F
N
4
Viento Variable Viento desde SSE

Hoy se prevé un día Más frío que ayer.

Hoy
Alta -- | Baja -- ° F
--% Posibilidad de precipitaciones
Ayer
Alta -- | Baja -- ° F
Precip. -- pul
6:21 AM 8:24 PM
Creciente menguante, 6% visible
Presión 30.04 pul
Visibilidad 10.0 Millas
Nubes Despejado
Punto de rocío 66 ° F
Humedad 94%
Precipitaciones 0.00 pul
Espesor de la nieve No disponible.
UV 0 de una escala de 12
Polen 4.20 de una escala de 12
Calidad del aire No disponible.
Flu Activity No disponible.
METAR KMEZ 240815Z AUTO 15003KT 10SM CLR 20/19 A3004 RMK AO2

More Conditions Fewer Conditions

Presión 30.04 pul
Visibilidad 10.0 Millas
Nubes Despejado
Punto de rocío 66 ° F
Humedad 94%
Precipitaciones 0.00 pul
Espesor de la nieve No disponible.
UV 0 de una escala de 12
Polen 4.20 de una escala de 12
Calidad del aire No disponible.
Flu Activity No disponible.
METAR KMEZ 240815Z AUTO 15003KT 10SM CLR 20/19 A3004 RMK AO2

More Conditions Fewer Conditions

10-Day Weather Forecast

Almanac

Astronomía

Jul. 24, 2014 Salida Puesta
Hora real 6:21 AM CDT 8:24 PM CDT
Crepúsculo civil 5:53 AM CDT 8:52 PM CDT
Crepúsculo náutico 5:18 AM CDT 9:27 PM CDT
Crepúsculo astronómico 4:41 AM CDT 10:03 PM CDT
Luna 4:29 AM CDT 6:41 PM CDT
Horas de luz 14h 59m
Horas de luz
14h 03m
Tomorrow will be 1m 25s shorter.
Creciente menguante, 6% of the Moon is Illuminated
Hoy
Creciente menguante
Jul 26
Nueva
Ago 3
Cuarto creciente
Ago 10
Luna llena
Ago 17
Cuarto menguante

Extremos de hoy

Máximos del estado Bajos del estado

Community

WunderPhotos

Upload Photos

1,736,950 ¡fotos cargadas!

Nearby

Grosos de nieve

Estación Profundido Altura
No tenemos constancia de nieve nueva.

Actividad de terremotos

Ciudad Distance Mag. Tiempo y dato
No hay informes recientes de la actividad sísmica.
Magnitud mínima muestra es 2,5.

Temperaturas de aguas costeras

Lugar Temperatura
Sin partes meteorológicos de las estaciones

Estaciones meteorológicas cercanas

Ubicación de la estación Temp. Punto de rocío Humedad Viento Precip. Alt Actualizado Tipo
RAWS ODEN AR, Oden, AR 66 ° F 66 ° F 99% ENE  a  2 mph 0.01 pul / hr 896 ft 2:27 AM CDT MADIS

Show More Stations Show Fewer Stations